Terminal Aerodrome Forecast
Issued by NWS Cleveland, OH

Home | Current Version | Previous Version | Graphics & Text | Print | Product List | Glossary On
Versions: 1 2 3 4 5 6 7 8 9 10 11 12 13 14 15
000
FTUS41 KCLE 021139
TAFCAK
TAF
KCAK 021139Z 0212/0312 25007KT P6SM SCT050
     FM021800 23010G18KT P6SM SCT060
     FM022300 20008KT P6SM BKN150
     FM030800 26010KT P6SM VCSH BKN050=

USA.gov is the U.S. government's official web portal to all federal, state and local government web resources and services.